createdAt,value
2018-01-22T00:00:42.237Z,77.00
2018-01-22T00:03:10.728Z,77.50
2018-01-22T00:05:41.793Z,77.75
2018-01-22T00:08:10.153Z,78.59
2018-01-22T00:10:38.599Z,78.90
2018-01-22T00:13:06.967Z,78.94
2018-01-22T00:15:35.543Z,79.30
2018-01-22T00:18:03.953Z,80.19
2018-01-22T00:20:32.355Z,80.13
2018-01-22T00:23:00.708Z,80.49
2018-01-22T00:25:29.081Z,80.45
2018-01-22T00:27:57.538Z,80.22
2018-01-22T00:30:25.956Z,79.63
2018-01-22T00:32:54.407Z,79.93
2018-01-22T00:35:22.755Z,79.72
2018-01-22T00:37:51.166Z,80.41
2018-01-22T00:40:19.609Z,81.26
2018-01-22T00:42:48.181Z,81.84
2018-01-22T00:45:16.737Z,82.33
2018-01-22T00:47:46.330Z,82.36
2018-01-22T00:50:14.643Z,82.38
2018-01-22T00:52:43.968Z,82.87
2018-01-22T00:55:12.413Z,82.83
2018-01-22T00:57:40.749Z,82.81
2018-01-22T01:00:09.068Z,82.52
2018-01-22T01:02:38.133Z,82.69
2018-01-22T01:05:06.454Z,82.37
2018-01-22T01:07:34.782Z,83.43
2018-01-22T01:10:03.071Z,82.91
2018-01-22T01:12:31.443Z,83.07
2018-01-22T01:15:01.380Z,82.82
2018-01-22T01:17:30.639Z,83.21
2018-01-22T01:19:58.952Z,82.99
2018-01-22T01:22:28.026Z,83.27
2018-01-22T01:24:57.276Z,83.02
2018-01-22T01:27:25.595Z,82.78
2018-01-22T01:29:53.894Z,82.92
2018-01-22T01:32:22.996Z,83.09
2018-01-22T01:34:52.061Z,83.30
2018-01-22T01:37:21.196Z,83.48
2018-01-22T01:39:49.479Z,83.55
2018-01-22T01:42:17.851Z,83.40
2018-01-22T01:44:46.159Z,83.75
2018-01-22T01:47:14.454Z,83.19
2018-01-22T01:49:42.768Z,83.53
2018-01-22T01:52:15.852Z,82.91
2018-01-22T01:54:44.940Z,82.67
2018-01-22T01:57:14.016Z,83.52
2018-01-22T01:59:42.322Z,82.14
2018-01-22T02:02:10.647Z,82.81
2018-01-22T02:04:38.932Z,83.00
2018-01-22T02:07:08.761Z,83.47
2018-01-22T02:09:38.134Z,83.49
2018-01-22T02:12:06.414Z,83.08
2018-01-22T02:14:34.936Z,82.83
2018-01-22T02:17:04.095Z,83.01
2018-01-22T02:19:32.410Z,83.23
2018-01-22T02:24:35.194Z,83.64
2018-01-22T02:27:04.264Z,83.03
2018-01-22T02:29:32.587Z,82.88
2018-01-22T02:32:00.892Z,82.78
2018-01-22T02:34:29.200Z,83.36
2018-01-22T02:36:59.027Z,82.91
2018-01-22T02:39:28.087Z,82.40
2018-01-22T02:41:56.394Z,83.25
2018-01-22T02:44:25.458Z,83.27
2018-01-22T02:46:53.784Z,83.00
2018-01-22T02:49:22.463Z,83.62
2018-01-22T02:51:51.544Z,83.53
2018-01-22T02:54:20.644Z,83.48
2018-01-22T02:56:49.706Z,83.48
2018-01-22T02:59:18.027Z,82.96
2018-01-22T03:01:46.327Z,83.31
2018-01-22T03:04:14.642Z,82.59
2018-01-22T03:06:43.707Z,81.83
2018-01-22T03:09:12.022Z,82.24
2018-01-22T03:11:40.344Z,82.77
2018-01-22T03:14:08.650Z,82.27
2018-01-22T03:16:36.991Z,82.36
2018-01-22T03:19:05.301Z,82.57
2018-01-22T03:21:33.782Z,82.48
2018-01-22T03:24:02.099Z,82.50
2018-01-22T03:26:31.232Z,82.74
2018-01-22T03:28:59.547Z,83.37
2018-01-22T03:31:27.834Z,83.07
2018-01-22T03:33:56.910Z,82.85
2018-01-22T03:36:25.279Z,83.17
2018-01-22T03:38:54.418Z,83.37
2018-01-22T03:41:22.727Z,83.14
2018-01-22T03:43:51.017Z,83.48
2018-01-22T03:46:19.336Z,83.63
2018-01-22T03:48:48.398Z,84.04
2018-01-22T03:51:17.471Z,84.50
2018-01-22T03:53:45.982Z,83.73
2018-01-22T03:56:14.307Z,83.58
2018-01-22T03:58:42.685Z,83.09
2018-01-22T04:01:11.096Z,83.24
2018-01-22T04:03:40.168Z,82.85
2018-01-22T04:06:08.462Z,83.01
2018-01-22T04:08:36.767Z,83.00
2018-01-22T04:11:05.855Z,83.18
2018-01-22T04:13:34.931Z,81.82
2018-01-22T04:16:03.309Z,82.36
2018-01-22T04:18:32.569Z,82.27
2018-01-22T04:21:00.902Z,82.70
2018-01-22T04:23:30.354Z,82.29
2018-01-22T04:25:58.660Z,82.55
2018-01-22T04:28:26.979Z,82.25
2018-01-22T04:30:55.281Z,82.08
2018-01-22T04:33:23.563Z,82.17
2018-01-22T04:35:51.909Z,81.83
2018-01-22T04:38:20.202Z,81.96
2018-01-22T04:40:48.527Z,82.33
2018-01-22T04:43:16.823Z,82.50
2018-01-22T04:45:45.372Z,82.52
2018-01-22T04:48:13.785Z,81.99
2018-01-22T04:50:42.871Z,81.39
2018-01-22T04:53:12.015Z,81.68
2018-01-22T04:55:40.405Z,81.50
2018-01-22T04:58:08.733Z,81.85
2018-01-22T05:00:38.067Z,82.06
2018-01-22T05:03:06.467Z,82.46
2018-01-22T05:05:34.787Z,82.46
2018-01-22T05:08:03.924Z,82.41
2018-01-22T05:10:32.387Z,82.81
2018-01-22T05:13:00.698Z,82.59
2018-01-22T05:15:28.999Z,83.29
2018-01-22T05:17:58.129Z,83.59
2018-01-22T05:20:26.423Z,83.87
2018-01-22T05:22:54.786Z,83.83
2018-01-22T05:25:23.079Z,83.84
2018-01-22T05:27:51.382Z,83.80
2018-01-22T05:30:20.357Z,83.63
2018-01-22T05:32:48.675Z,83.63
2018-01-22T05:35:17.738Z,83.55
2018-01-22T05:37:46.044Z,83.04
2018-01-22T05:40:15.127Z,82.96
2018-01-22T05:42:44.303Z,82.77
2018-01-22T05:45:12.854Z,82.73
2018-01-22T05:47:41.159Z,82.79
2018-01-22T05:50:09.460Z,82.91
2018-01-22T05:52:38.587Z,83.27
2018-01-22T05:55:06.897Z,83.50
2018-01-22T05:57:35.200Z,83.89
2018-01-22T06:00:04.262Z,83.98
2018-01-22T06:02:32.605Z,84.29
2018-01-22T06:05:00.905Z,83.93
2018-01-22T06:07:29.214Z,84.03
2018-01-22T06:09:57.542Z,83.77
2018-01-22T06:12:25.875Z,84.21
2018-01-22T06:14:56.413Z,84.09
2018-01-22T06:17:24.760Z,84.00
2018-01-22T06:19:53.098Z,84.11
2018-01-22T06:22:21.489Z,84.42
2018-01-22T06:24:50.620Z,84.60
2018-01-22T06:27:20.064Z,84.67
2018-01-22T06:29:48.451Z,84.69
2018-01-22T06:32:16.762Z,84.67
2018-01-22T06:34:45.060Z,84.55
2018-01-22T06:37:14.172Z,84.65
2018-01-22T06:39:43.266Z,85.00
2018-01-22T06:42:11.989Z,84.99
2018-01-22T06:44:40.318Z,84.91
2018-01-22T06:47:09.377Z,85.05
2018-01-22T06:49:37.712Z,85.11
2018-01-22T06:52:06.002Z,85.21
2018-01-22T06:54:34.399Z,85.31
2018-01-22T06:57:02.849Z,85.49
2018-01-22T06:59:31.432Z,85.48
2018-01-22T07:02:00.880Z,85.57
2018-01-22T07:04:29.666Z,85.61
2018-01-22T07:06:58.230Z,85.55
2018-01-22T07:09:27.868Z,85.48
2018-01-22T07:11:56.230Z,85.35
2018-01-22T07:14:26.006Z,85.49
2018-01-22T07:16:54.510Z,85.51
2018-01-22T07:19:22.849Z,85.71
2018-01-22T07:21:51.165Z,86.26
2018-01-22T07:24:19.485Z,86.33
2018-01-22T07:26:47.778Z,86.24
2018-01-22T07:29:16.331Z,86.53
2018-01-22T07:31:45.422Z,86.37
2018-01-22T07:34:14.485Z,86.78
2018-01-22T07:36:42.838Z,87.34
2018-01-22T07:39:11.227Z,87.30
2018-01-22T07:41:39.816Z,87.19
2018-01-22T07:44:08.479Z,87.24
2018-01-22T07:46:36.822Z,87.27
2018-01-22T07:49:05.147Z,87.22
2018-01-22T07:51:33.491Z,86.92
2018-01-22T07:54:02.113Z,86.99
2018-01-22T07:56:30.492Z,87.21
2018-01-22T07:58:58.858Z,86.87
2018-01-22T08:01:27.232Z,87.11
2018-01-22T08:03:55.528Z,87.30
2018-01-22T08:06:23.870Z,86.99
2018-01-22T08:08:52.189Z,86.65
2018-01-22T08:11:20.557Z,86.62
2018-01-22T08:13:48.857Z,86.87
2018-01-22T08:16:17.971Z,87.09
2018-01-22T08:18:47.024Z,86.76
2018-01-22T08:21:15.351Z,86.99
2018-01-22T08:23:43.813Z,87.06
2018-01-22T08:26:12.898Z,87.36
2018-01-22T08:28:41.995Z,87.58
2018-01-22T08:31:10.504Z,87.40
2018-01-22T08:33:38.880Z,87.70
2018-01-22T08:36:08.026Z,88.02
2018-01-22T08:38:36.364Z,88.48
2018-01-22T08:41:04.693Z,88.26
2018-01-22T08:43:33.771Z,88.53
2018-01-22T08:46:02.098Z,88.48
2018-01-22T08:48:30.394Z,88.51
2018-01-22T08:50:58.744Z,87.93
2018-01-22T08:53:27.047Z,87.69
2018-01-22T08:55:55.381Z,87.39
2018-01-22T08:58:23.689Z,87.77
2018-01-22T09:00:51.982Z,87.48
2018-01-22T09:03:20.451Z,87.36
2018-01-22T09:05:48.763Z,87.30
2018-01-22T09:08:17.089Z,88.31
2018-01-22T09:10:45.443Z,87.96
2018-01-22T09:13:13.753Z,88.12
2018-01-22T09:15:42.100Z,88.11
2018-01-22T09:18:11.026Z,88.29
2018-01-22T09:20:39.476Z,88.23
2018-01-22T09:23:07.858Z,88.68
2018-01-22T09:25:36.711Z,88.48
2018-01-22T09:28:05.002Z,88.52
2018-01-22T09:30:34.190Z,88.62
2018-01-22T09:33:02.544Z,88.56
2018-01-22T09:35:30.896Z,88.77
2018-01-22T09:37:59.363Z,88.74
2018-01-22T09:40:27.754Z,88.33
2018-01-22T09:42:56.081Z,88.31
2018-01-22T09:45:25.234Z,88.27
2018-01-22T09:47:53.588Z,88.42
2018-01-22T09:50:21.928Z,88.32
2018-01-22T09:52:51.018Z,87.99
2018-01-22T09:55:20.105Z,88.21
2018-01-22T09:57:48.428Z,87.94
2018-01-22T10:00:16.769Z,88.05
2018-01-22T10:02:45.829Z,87.81
2018-01-22T10:05:14.255Z,87.53
2018-01-22T10:07:42.662Z,88.04
2018-01-22T10:10:10.979Z,88.58
2018-01-22T10:12:39.326Z,88.22
2018-01-22T10:15:07.647Z,88.40
2018-01-22T10:17:36.726Z,88.32
2018-01-22T10:20:05.043Z,88.20
2018-01-22T10:22:33.539Z,87.83
2018-01-22T10:25:01.872Z,87.68
2018-01-22T10:27:30.943Z,88.04
2018-01-22T10:29:59.282Z,88.61
2018-01-22T10:32:27.703Z,88.60
2018-01-22T10:34:56.187Z,88.67
2018-01-22T10:37:25.368Z,88.65
2018-01-22T10:39:53.671Z,88.94
2018-01-22T10:42:23.012Z,89.06
2018-01-22T10:44:51.402Z,88.92
2018-01-22T10:47:19.723Z,89.17
2018-01-22T10:49:48.839Z,89.17
2018-01-22T10:52:17.145Z,89.54
2018-01-22T10:54:45.512Z,90.25
2018-01-22T10:57:13.846Z,90.07
2018-01-22T10:59:42.219Z,89.74
2018-01-22T11:02:11.323Z,89.53
2018-01-22T11:04:40.380Z,89.27
2018-01-22T11:07:08.731Z,89.28
2018-01-22T11:09:37.034Z,89.11
2018-01-22T11:12:05.364Z,88.69
2018-01-22T11:14:33.725Z,88.14
2018-01-22T11:17:02.850Z,87.87
2018-01-22T11:19:31.171Z,87.20
2018-01-22T11:21:59.490Z,86.84
2018-01-22T11:24:27.816Z,86.02
2018-01-22T11:26:56.123Z,85.73
2018-01-22T11:29:25.386Z,85.34
2018-01-22T11:31:53.810Z,84.99
2018-01-22T11:34:22.304Z,84.76
2018-01-22T11:36:50.704Z,84.69
2018-01-22T11:39:19.095Z,84.57
2018-01-22T11:41:47.427Z,84.52
2018-01-22T11:44:16.411Z,84.30
2018-01-22T11:46:45.498Z,84.30
2018-01-22T11:49:14.579Z,84.27
2018-01-22T11:51:43.675Z,85.19
2018-01-22T11:54:12.785Z,85.46
2018-01-22T11:56:41.905Z,85.63
2018-01-22T11:59:10.217Z,86.02
2018-01-22T12:01:38.518Z,86.01
2018-01-22T12:04:07.605Z,85.92
2018-01-22T12:06:35.930Z,85.99
2018-01-22T12:09:04.282Z,85.87
2018-01-22T12:11:33.479Z,86.44
2018-01-22T12:14:01.855Z,86.21
2018-01-22T12:16:30.319Z,85.86
2018-01-22T12:18:59.395Z,85.19
2018-01-22T12:21:27.744Z,84.61
2018-01-22T12:23:56.069Z,84.28
2018-01-22T12:26:25.165Z,84.04
2018-01-22T12:28:54.240Z,83.19
2018-01-22T12:31:23.384Z,82.80
2018-01-22T12:33:51.712Z,81.98
2018-01-22T12:36:20.085Z,82.11
2018-01-22T12:38:48.407Z,81.96
2018-01-22T12:41:16.746Z,81.86
2018-01-22T12:43:45.065Z,81.24
2018-01-22T12:46:13.390Z,82.14
2018-01-22T12:48:41.689Z,82.56
2018-01-22T12:51:10.042Z,82.62
2018-01-22T12:53:38.371Z,82.51
2018-01-22T12:56:06.706Z,82.64
2018-01-22T12:58:35.891Z,82.56
2018-01-22T13:01:04.286Z,82.84
2018-01-22T13:03:33.633Z,82.89
2018-01-22T13:06:02.276Z,82.87
2018-01-22T13:08:31.755Z,82.39
2018-01-22T13:11:00.478Z,82.31
2018-01-22T13:13:28.813Z,82.22
2018-01-22T13:15:57.130Z,82.05
2018-01-22T13:18:25.485Z,81.76
2018-01-22T13:20:54.814Z,81.67
2018-01-22T13:23:24.128Z,81.58
2018-01-22T13:25:53.562Z,82.17
2018-01-22T13:28:22.662Z,82.28
2018-01-22T13:30:51.032Z,82.26
2018-01-22T13:33:20.353Z,82.27
2018-01-22T13:35:48.752Z,82.50
2018-01-22T13:38:17.865Z,83.39
2018-01-22T13:40:51.797Z,83.21
2018-01-22T13:43:20.231Z,83.22
2018-01-22T13:45:48.868Z,83.07
2018-01-22T13:48:17.331Z,84.03
2018-01-22T13:50:45.733Z,84.68
2018-01-22T13:53:14.096Z,84.61
2018-01-22T13:55:42.440Z,84.48
2018-01-22T13:58:10.826Z,84.27
2018-01-22T14:00:39.204Z,84.75
2018-01-22T14:03:07.596Z,85.29
2018-01-22T14:05:35.917Z,85.54
2018-01-22T14:08:05.028Z,85.66
2018-01-22T14:10:34.125Z,86.01
2018-01-22T14:13:02.462Z,86.03
2018-01-22T14:15:30.787Z,85.85
2018-01-22T14:17:59.157Z,85.89
2018-01-22T14:20:27.601Z,86.57
2018-01-22T14:22:56.063Z,86.82
2018-01-22T14:25:24.454Z,86.80
2018-01-22T14:27:53.011Z,86.47
2018-01-22T14:30:22.978Z,86.23
2018-01-22T14:32:52.085Z,86.32
2018-01-22T14:35:20.610Z,86.13
2018-01-22T14:37:48.981Z,86.17
2018-01-22T14:40:17.427Z,86.96
2018-01-22T14:42:45.827Z,87.21
2018-01-22T14:45:14.234Z,87.21
2018-01-22T14:47:42.672Z,86.99
2018-01-22T14:50:11.084Z,87.03
2018-01-22T14:52:39.454Z,87.29
2018-01-22T14:55:08.033Z,87.08
2018-01-22T14:57:36.388Z,86.56
2018-01-22T15:00:04.688Z,86.25
2018-01-22T15:02:33.045Z,85.88
2018-01-22T15:05:02.168Z,86.09
2018-01-22T15:07:31.351Z,86.20
2018-01-22T15:09:59.673Z,86.42
2018-01-22T15:12:29.692Z,86.77
2018-01-22T15:14:58.891Z,87.00
2018-01-22T15:17:28.127Z,87.30
2018-01-22T15:19:57.315Z,87.35
2018-01-22T15:22:25.631Z,87.42
2018-01-22T15:24:53.937Z,87.45
2018-01-22T15:27:23.147Z,87.24
2018-01-22T15:29:52.605Z,87.14
2018-01-22T15:32:21.756Z,86.94
2018-01-22T15:34:50.099Z,86.91
2018-01-22T15:37:19.204Z,86.95
2018-01-22T15:39:47.558Z,86.29
2018-01-22T15:42:16.728Z,85.54
2018-01-22T15:44:45.184Z,85.03
2018-01-22T15:47:13.499Z,85.00
2018-01-22T15:49:41.992Z,85.26
2018-01-22T15:52:10.379Z,85.18
2018-01-22T15:54:39.587Z,85.69
2018-01-22T15:57:08.690Z,85.98
2018-01-22T15:59:37.036Z,85.83
2018-01-22T16:02:05.380Z,85.87
2018-01-22T16:04:34.163Z,86.03
2018-01-22T16:07:03.464Z,86.05
2018-01-22T16:09:31.912Z,85.91
2018-01-22T16:12:00.316Z,86.07
2018-01-22T16:14:28.650Z,86.08
2018-01-22T16:16:57.890Z,86.19
2018-01-22T16:19:26.220Z,86.26
2018-01-22T16:21:55.377Z,86.01
2018-01-22T16:24:23.944Z,86.22
2018-01-22T16:26:52.284Z,86.18
2018-01-22T16:29:20.813Z,85.98
2018-01-22T16:31:49.138Z,85.72
2018-01-22T16:34:18.435Z,85.58
2018-01-22T16:36:47.559Z,85.73
2018-01-22T16:39:15.882Z,85.87
2018-01-22T16:41:44.234Z,85.81
2018-01-22T16:44:12.594Z,85.70
2018-01-22T16:46:41.699Z,85.63
2018-01-22T16:49:10.126Z,85.73
2018-01-22T16:51:39.240Z,85.67
2018-01-22T16:54:07.569Z,85.77
2018-01-22T16:56:36.836Z,85.90
2018-01-22T16:59:05.163Z,86.10
2018-01-22T17:01:34.264Z,86.20
2018-01-22T17:04:04.134Z,86.22
2018-01-22T17:06:32.466Z,86.19
2018-01-22T17:09:00.815Z,86.53
2018-01-22T17:11:29.210Z,86.58
2018-01-22T17:13:57.765Z,86.66
2018-01-22T17:16:26.191Z,86.61
2018-01-22T17:18:54.500Z,86.46
2018-01-22T17:21:22.834Z,86.28
2018-01-22T17:23:51.186Z,86.18
2018-01-22T17:26:19.528Z,86.09
2018-01-22T17:28:47.839Z,86.19
2018-01-22T17:31:16.131Z,86.48
2018-01-22T17:33:44.472Z,86.52
2018-01-22T17:36:13.558Z,86.25
2018-01-22T17:38:41.909Z,86.31
2018-01-22T17:41:10.221Z,86.51
2018-01-22T17:43:38.620Z,86.47
2018-01-22T17:46:07.731Z,86.52
2018-01-22T17:48:36.371Z,86.46
2018-01-22T17:51:04.706Z,86.47
2018-01-22T17:53:33.063Z,86.44
2018-01-22T17:56:02.205Z,86.47
2018-01-22T17:58:30.533Z,86.72
2018-01-22T18:00:59.648Z,86.79
2018-01-22T18:03:27.987Z,86.88
2018-01-22T18:05:57.098Z,86.93
2018-01-22T18:08:26.303Z,86.81
2018-01-22T18:10:54.629Z,86.90
2018-01-22T18:13:22.970Z,87.03
2018-01-22T19:11:48.519Z,68.83
2018-01-22T19:14:17.098Z,76.08
2018-01-22T19:16:45.931Z,82.52
2018-01-22T19:19:14.508Z,85.83
2018-01-22T19:21:43.023Z,88.43
2018-01-22T19:24:11.455Z,90.35
2018-01-22T19:26:39.927Z,91.46
2018-01-22T19:29:08.272Z,91.86
2018-01-22T19:31:37.409Z,92.39
2018-01-22T19:34:05.828Z,93.05
2018-01-22T19:36:42.375Z,93.05
2018-01-22T19:39:11.150Z,93.47
2018-01-22T19:41:39.747Z,93.68
2018-01-22T19:44:09.377Z,93.86
2018-01-22T19:46:38.268Z,93.93
2018-01-22T19:49:08.188Z,93.84
2018-01-22T19:51:36.800Z,94.25
2018-01-22T19:54:07.206Z,94.32
2018-01-22T19:56:35.811Z,94.71
2018-01-22T19:59:04.417Z,94.74
2018-01-22T20:01:33.254Z,94.80
2018-01-22T20:04:01.879Z,94.69
2018-01-22T20:06:30.625Z,94.98
2018-01-22T20:08:59.345Z,95.05
2018-01-22T20:11:29.262Z,95.20
2018-01-22T20:13:57.918Z,94.87
2018-01-22T20:16:28.115Z,94.99
2018-01-22T20:18:58.001Z,94.87
2018-01-22T20:21:26.694Z,94.82
2018-01-22T20:23:55.476Z,94.95
2018-01-22T20:26:24.207Z,94.92
2018-01-22T20:28:52.729Z,94.99
2018-01-22T20:31:21.449Z,95.15
2018-01-22T20:33:51.206Z,95.33
2018-01-22T20:36:19.962Z,95.42
2018-01-22T20:38:49.731Z,95.65
2018-01-22T20:41:18.480Z,95.58
2018-01-22T20:43:47.173Z,95.62
2018-01-22T20:46:16.554Z,95.47
2018-01-22T20:48:45.566Z,95.60
2018-01-22T20:51:14.358Z,95.54
2018-01-22T20:53:43.548Z,95.82
2018-01-22T20:56:13.399Z,95.89
2018-01-22T20:58:43.401Z,95.86
2018-01-22T21:01:12.336Z,95.79
2018-01-22T21:03:42.418Z,95.66
2018-01-22T21:06:11.293Z,95.86
2018-01-22T21:08:40.273Z,95.86
2018-01-22T21:11:09.405Z,95.75
2018-01-22T21:13:39.063Z,95.90
2018-01-22T21:16:07.927Z,95.84
2018-01-22T21:18:36.740Z,95.94
2018-01-22T21:21:05.726Z,95.51
2018-01-22T21:23:34.487Z,95.68
2018-01-22T21:26:03.134Z,95.62
2018-01-22T21:28:33.241Z,95.36
2018-01-22T21:31:02.107Z,95.25
2018-01-22T21:33:31.909Z,94.83
2018-01-22T21:36:00.931Z,94.96
2018-01-22T21:38:29.667Z,94.79
2018-01-22T21:40:58.764Z,94.11
2018-01-22T21:43:28.508Z,94.04
2018-01-22T21:45:57.027Z,94.36
2018-01-22T21:48:25.581Z,94.19
2018-01-22T21:50:54.787Z,94.27
2018-01-22T21:53:24.060Z,94.40
2018-01-22T21:55:52.688Z,94.38
2018-01-22T21:58:21.184Z,94.36
2018-01-22T22:00:49.664Z,94.58
2018-01-22T22:03:18.635Z,94.90
2018-01-22T22:05:47.028Z,95.03
2018-01-22T22:08:16.175Z,95.06
2018-01-22T22:10:44.550Z,94.93
2018-01-22T22:13:12.887Z,95.02
2018-01-22T22:15:42.029Z,94.86
2018-01-22T22:18:10.613Z,95.02
2018-01-22T22:20:39.476Z,94.73
2018-01-22T22:23:07.997Z,94.62
2018-01-22T22:25:36.343Z,94.61
2018-01-22T22:28:04.754Z,94.58
2018-01-22T22:30:33.166Z,94.55
2018-01-22T22:33:02.528Z,94.15
2018-01-22T22:35:30.996Z,93.90
2018-01-22T22:37:59.512Z,93.86
2018-01-22T22:40:28.895Z,92.86
2018-01-22T22:42:57.223Z,93.01
2018-01-22T22:45:25.540Z,92.23
2018-01-22T22:47:53.878Z,93.04
2018-01-22T22:50:22.397Z,91.86
2018-01-22T22:52:51.002Z,90.67
2018-01-22T22:55:20.252Z,91.96
2018-01-22T22:57:48.601Z,92.49
2018-01-22T23:00:17.041Z,92.90
2018-01-22T23:02:45.899Z,93.05
2018-01-22T23:05:14.206Z,93.08
2018-01-22T23:07:42.530Z,92.82
2018-01-22T23:10:10.896Z,92.74
2018-01-22T23:12:39.311Z,92.78
2018-01-22T23:15:07.642Z,92.36
2018-01-22T23:17:37.103Z,91.70
2018-01-22T23:20:05.470Z,92.25
2018-01-22T23:22:33.914Z,92.16
2018-01-22T23:25:03.189Z,92.40
2018-01-22T23:27:31.788Z,92.06
2018-01-22T23:30:01.437Z,91.23
2018-01-22T23:32:30.798Z,91.07
2018-01-22T23:34:59.886Z,90.77
2018-01-22T23:37:29.106Z,90.94
2018-01-22T23:39:57.722Z,89.07
2018-01-22T23:42:26.053Z,89.79
2018-01-22T23:44:55.142Z,90.57
2018-01-22T23:47:23.558Z,90.95
2018-01-22T23:49:52.044Z,89.32
2018-01-22T23:52:20.349Z,89.34
2018-01-22T23:54:49.869Z,89.03
2018-01-22T23:57:18.304Z,88.81
2018-01-22T23:59:46.622Z,88.97
